Time;durP1;ratioP1;P1;durP2;ratioP2;P2;SDS_P1;SDS_P2;PMS_P1;PMS_P2;Temp;Humidity;BMP_temperature;BMP_pressure;BME280_temperature;BME280_humidity;BME280_pressure;Samples;Min_cycle;Max_cycle;Signal;HPM_P1;HPM_P2
2022/05/09 00:00:00;;;;;;;7.18;2.92;;;7.20;99.90;;;;;;5059370;28;20117;-79
2022/05/09 00:02:26;;;;;;;11.63;2.60;;;7.20;99.90;;;;;;5058604;28;20033;-79
2022/05/09 00:04:52;;;;;;;6.97;2.60;;;7.20;99.90;;;;;;5076675;28;20052;-79
2022/05/09 00:07:19;;;;;;;8.13;2.90;;;7.30;99.90;;;;;;5075132;28;20044;-80
2022/05/09 00:09:44;;;;;;;9.25;2.50;;;7.30;99.90;;;;;;5059511;28;20096;-80
2022/05/09 00:12:11;;;;;;;9.63;2.88;;;7.30;99.90;;;;;;5043192;28;20079;-79
2022/05/09 00:14:37;;;;;;;6.65;2.78;;;7.30;99.90;;;;;;5058402;28;20040;-80
2022/05/09 00:17:03;;;;;;;8.18;2.92;;;7.30;99.90;;;;;;5060075;28;20057;-80
2022/05/09 00:19:29;;;;;;;6.97;2.60;;;7.30;99.90;;;;;;5075373;28;20060;-79
2022/05/09 00:21:55;;;;;;;7.32;2.83;;;7.30;99.90;;;;;;5076792;28;20111;-80
2022/05/09 00:24:22;;;;;;;8.63;3.15;;;7.30;99.90;;;;;;5058851;28;20044;-80
2022/05/09 00:26:50;;;;;;;8.52;2.85;;;7.20;99.90;;;;;;5059875;28;20098;-80
2022/05/09 00:29:17;;;;;;;6.78;2.90;;;7.10;99.90;;;;;;5058961;28;20067;-79
2022/05/09 00:31:45;;;;;;;6.95;3.13;;;7.10;99.90;;;;;;5074732;28;20075;-80
2022/05/09 00:34:16;;;;;;;7.93;2.88;;;7.00;99.90;;;;;;5060463;28;20056;-79
2022/05/09 00:36:42;;;;;;;7.60;2.58;;;6.90;99.90;;;;;;5058592;28;20040;-80
2022/05/09 00:39:08;;;;;;;8.38;3.00;;;6.80;99.90;;;;;;5059742;28;20189;-80
2022/05/09 00:41:34;;;;;;;7.18;2.88;;;6.90;99.90;;;;;;5059135;28;20045;-80
2022/05/09 00:44:11;;;;;;;6.78;2.85;;;6.80;99.90;;;;;;5077937;28;20067;-80
2022/05/09 00:46:43;;;;;;;6.82;3.85;;;6.80;99.90;;;;;;5076908;28;20112;-80
2022/05/09 00:49:14;;;;;;;8.30;3.03;;;6.80;99.90;;;;;;5075237;28;20045;-80
2022/05/09 00:51:43;;;;;;;10.80;4.07;;;6.80;99.90;;;;;;5076377;28;20094;-80
2022/05/09 00:54:09;;;;;;;8.13;3.33;;;6.70;99.90;;;;;;5059288;28;20135;-79
2022/05/09 00:56:51;;;;;;;9.10;3.15;;;6.80;99.90;;;;;;5076273;28;20048;-79
2022/05/09 00:59:19;;;;;;;7.50;3.25;;;6.60;99.90;;;;;;5058798;28;20128;-79
2022/05/09 01:01:47;;;;;;;10.07;3.80;;;6.50;99.90;;;;;;5075374;28;20059;-79
2022/05/09 01:04:19;;;;;;;11.38;3.78;;;6.40;99.90;;;;;;5059548;28;20037;-79
2022/05/09 01:06:46;;;;;;;10.38;3.08;;;6.40;99.90;;;;;;5075242;28;20435;-79
2022/05/09 01:09:11;;;;;;;8.07;3.65;;;6.30;99.90;;;;;;5043169;28;20098;-80
2022/05/09 01:11:39;;;;;;;8.77;4.05;;;6.20;99.90;;;;;;5059238;28;20041;-79
2022/05/09 01:14:09;;;;;;;5.20;2.90;;;6.20;99.90;;;;;;5075581;28;20059;-79
2022/05/09 01:16:35;;;;;;;7.20;3.17;;;6.10;99.90;;;;;;5076522;28;20091;-78
2022/05/09 01:19:14;;;;;;;8.75;3.17;;;6.00;99.90;;;;;;5061976;28;20120;-78
2022/05/09 01:21:41;;;;;;;8.68;3.55;;;6.00;99.90;;;;;;5080088;28;20064;-79
2022/05/09 01:24:16;;;;;;;11.38;3.65;;;6.00;99.90;;;;;;5062546;28;20052;-79
2022/05/09 01:26:42;;;;;;;7.53;3.30;;;6.10;99.90;;;;;;5079480;28;20037;-80
2022/05/09 01:29:17;;;;;;;7.50;3.53;;;6.40;99.90;;;;;;5079122;28;20112;-80
2022/05/09 01:31:44;;;;;;;6.90;3.35;;;6.20;99.90;;;;;;5078350;28;20072;-80
2022/05/09 01:34:13;;;;;;;10.10;2.90;;;6.20;99.90;;;;;;5081293;28;20481;-80
2022/05/09 01:36:39;;;;;;;6.05;3.05;;;6.10;99.90;;;;;;5078511;28;20079;-80
2022/05/09 01:39:10;;;;;;;6.32;3.28;;;6.10;99.90;;;;;;5080081;28;20048;-80
2022/05/09 01:41:43;;;;;;;5.47;3.28;;;6.10;99.90;;;;;;5062270;28;20047;-80
2022/05/09 01:44:10;;;;;;;8.98;3.38;;;6.10;99.90;;;;;;5062534;28;20131;-80
2022/05/09 01:49:29;;;;;;;5.38;2.72;;;6.10;99.90;;;;;;5079945;28;20051;-79
2022/05/09 01:49:31;;;;;;;7.30;3.35;;;6.10;99.90;;;;;;5064575;28;20052;-80
2022/05/09 01:52:03;;;;;;;12.45;3.47;;;6.10;99.90;;;;;;5063777;28;20060;-80
2022/05/09 01:54:29;;;;;;;7.57;3.58;;;6.20;99.90;;;;;;5078823;28;20041;-80
2022/05/09 01:56:55;;;;;;;8.90;3.58;;;6.10;99.90;;;;;;5062759;28;20070;-80
2022/05/09 01:59:21;;;;;;;7.25;3.10;;;6.10;99.90;;;;;;5062038;28;20040;-80
2022/05/09 02:01:51;;;;;;;7.65;3.35;;;6.10;99.90;;;;;;5078039;28;20055;-79
2022/05/09 02:04:18;;;;;;;8.73;3.17;;;6.10;99.90;;;;;;5063055;28;20504;-80
2022/05/09 02:06:43;;;;;;;7.70;3.50;;;6.10;99.90;;;;;;5061276;28;20084;-80
2022/05/09 02:09:11;;;;;;;9.35;3.58;;;6.10;99.90;;;;;;5062702;28;20045;-80
2022/05/09 02:11:37;;;;;;;11.85;3.53;;;6.10;99.90;;;;;;5061554;28;20040;-80
2022/05/09 02:14:03;;;;;;;7.50;3.75;;;6.10;99.90;;;;;;5061835;28;20527;-80
2022/05/09 02:16:29;;;;;;;11.80;3.70;;;6.10;99.90;;;;;;5062870;28;20066;-80
2022/05/09 02:18:56;;;;;;;9.80;4.40;;;6.10;99.90;;;;;;5041517;28;20064;-80
2022/05/09 02:21:22;;;;;;;6.05;3.45;;;6.10;99.90;;;;;;5044746;28;20053;-80
2022/05/09 02:23:48;;;;;;;10.68;4.15;;;6.10;99.90;;;;;;5061573;28;20452;-80
2022/05/09 02:26:14;;;;;;;11.52;4.00;;;6.10;99.90;;;;;;5079750;28;20048;-80
2022/05/09 02:28:39;;;;;;;8.32;3.45;;;6.50;99.90;;;;;;5077825;28;20040;-80
2022/05/09 02:31:05;;;;;;;9.05;3.97;;;6.20;99.90;;;;;;5061319;28;20056;-80
2022/05/09 02:33:31;;;;;;;10.40;3.42;;;6.30;99.90;;;;;;5078962;28;20045;-80
2022/05/09 02:35:57;;;;;;;6.38;3.55;;;6.10;99.90;;;;;;5044656;28;20072;-80
2022/05/09 02:38:24;;;;;;;7.75;4.10;;;6.00;99.90;;;;;;5062335;28;20067;-80
2022/05/09 02:40:52;;;;;;;13.32;3.58;;;6.00;99.90;;;;;;5044300;28;20120;-80
2022/05/09 02:43:17;;;;;;;8.05;3.50;;;6.00;99.90;;;;;;5061519;28;20049;-80
2022/05/09 02:45:44;;;;;;;5.32;3.40;;;6.00;99.90;;;;;;5060666;28;20072;-80
2022/05/09 02:48:10;;;;;;;8.95;3.45;;;6.00;99.90;;;;;;5078244;28;20036;-80
2022/05/09 02:50:36;;;;;;;11.23;3.92;;;5.90;99.90;;;;;;5078200;28;20044;-80
2022/05/09 02:53:02;;;;;;;5.95;2.90;;;5.90;99.90;;;;;;5060803;28;20045;-80
2022/05/09 02:55:30;;;;;;;8.52;3.85;;;5.80;99.90;;;;;;5078741;28;20438;-80
2022/05/09 02:57:55;;;;;;;8.02;3.65;;;5.80;99.90;;;;;;5076802;28;20551;-80
2022/05/09 03:00:27;;;;;;;8.23;3.60;;;5.80;99.90;;;;;;5061479;28;20075;-80
2022/05/09 03:05:39;;;;;;;7.95;3.78;;;5.70;99.90;;;;;;5078846;28;20056;-80
2022/05/09 03:08:06;;;;;;;7.82;4.53;;;5.70;99.90;;;;;;5079690;28;20068;-80
2022/05/09 03:10:32;;;;;;;8.27;3.50;;;5.70;99.90;;;;;;5078102;28;20052;-80
2022/05/09 03:12:59;;;;;;;9.98;4.13;;;5.70;99.90;;;;;;5045165;28;20056;-79
2022/05/09 03:15:29;;;;;;;9.43;3.75;;;5.70;99.90;;;;;;5043802;28;20068;-80
2022/05/09 03:17:56;;;;;;;8.77;4.00;;;5.70;99.90;;;;;;5077886;28;20044;-80
2022/05/09 03:20:22;;;;;;;6.40;3.22;;;5.70;99.90;;;;;;5076826;28;20048;-80
2022/05/09 03:22:49;;;;;;;12.07;4.28;;;5.70;99.90;;;;;;5076912;28;20060;-80
2022/05/09 03:25:15;;;;;;;10.93;4.20;;;5.60;99.90;;;;;;5078098;28;20050;-80
2022/05/09 03:27:41;;;;;;;8.85;4.10;;;5.60;99.90;;;;;;5057219;28;20080;-80
2022/05/09 03:30:08;;;;;;;8.13;4.13;;;5.70;99.90;;;;;;5074661;28;20071;-80
2022/05/09 03:32:35;;;;;;;9.30;3.80;;;5.70;99.90;;;;;;5057312;28;20040;-80
2022/05/09 03:35:02;;;;;;;8.13;3.30;;;5.60;99.90;;;;;;5058229;28;20049;-80
2022/05/09 03:37:30;;;;;;;8.32;4.75;;;5.60;99.90;;;;;;5075824;28;20060;-80
2022/05/09 03:39:56;;;;;;;9.43;7.65;;;5.60;99.90;;;;;;5060225;28;20051;-80
2022/05/09 03:42:22;;;;;;;11.02;5.68;;;5.60;99.90;;;;;;5077838;28;20060;-79
2022/05/09 03:44:47;;;;;;;8.35;4.00;;;5.60;99.90;;;;;;5076274;28;20044;-80
2022/05/09 03:47:13;;;;;;;9.38;3.90;;;5.60;99.90;;;;;;5044617;28;20127;-79
2022/05/09 03:49:39;;;;;;;11.23;4.45;;;5.60;99.90;;;;;;5043108;28;20072;-80
2022/05/09 03:52:05;;;;;;;10.95;4.03;;;5.60;99.90;;;;;;5077255;28;20100;-80
2022/05/09 03:54:30;;;;;;;10.38;4.03;;;5.60;99.90;;;;;;5076665;28;20048;-80
2022/05/09 03:56:56;;;;;;;9.02;3.90;;;5.60;99.90;;;;;;5026596;28;20044;-80
2022/05/09 03:59:22;;;;;;;8.60;3.70;;;5.50;99.90;;;;;;5060057;28;20044;-80
2022/05/09 04:01:48;;;;;;;6.60;3.88;;;5.50;99.90;;;;;;5059282;28;20059;-80
2022/05/09 04:04:14;;;;;;;8.63;3.78;;;5.50;99.90;;;;;;5077456;28;20055;-79
2022/05/09 04:06:40;;;;;;;5.78;3.70;;;5.50;99.90;;;;;;5075754;28;20048;-80
2022/05/09 04:09:05;;;;;;;6.82;3.72;;;5.50;99.90;;;;;;5060450;28;20497;-80
2022/05/09 04:11:31;;;;;;;4.80;3.13;;;5.50;99.90;;;;;;5076385;28;20082;-80
2022/05/09 04:13:57;;;;;;;6.32;3.83;;;5.40;99.90;;;;;;5059804;28;20420;-80
2022/05/09 04:19:07;;;;;;;8.75;3.90;;;5.50;99.90;;;;;;5075583;28;20049;-79
2022/05/09 04:21:33;;;;;;;6.68;3.00;;;5.60;99.90;;;;;;5060399;28;20044;-79
2022/05/09 04:23:59;;;;;;;9.00;4.30;;;5.50;99.90;;;;;;5075662;28;20134;-80
2022/05/09 04:26:31;;;;;;;9.32;3.70;;;5.50;99.90;;;;;;5059079;28;20044;-80
2022/05/09 04:28:57;;;;;;;7.72;3.47;;;5.50;99.90;;;;;;5075542;28;20184;-80
2022/05/09 04:31:23;;;;;;;10.27;3.72;;;5.50;99.90;;;;;;5076271;28;20388;-80
2022/05/09 04:33:49;;;;;;;5.28;3.08;;;5.50;99.90;;;;;;5076901;28;20540;-80
2022/05/09 04:36:16;;;;;;;7.65;3.47;;;5.50;99.90;;;;;;5075540;28;20404;-80
2022/05/09 04:38:43;;;;;;;5.22;3.10;;;5.40;99.90;;;;;;5060155;28;20066;-80
2022/05/09 04:41:10;;;;;;;5.20;2.80;;;5.40;99.90;;;;;;5075386;28;20779;-80
2022/05/09 04:43:37;;;;;;;6.13;3.55;;;5.40;99.90;;;;;;5059698;28;20062;-79
2022/05/09 04:46:04;;;;;;;8.80;3.55;;;5.40;99.90;;;;;;5076269;28;20139;-80
2022/05/09 04:48:31;;;;;;;7.18;4.28;;;5.40;99.90;;;;;;5075549;28;20044;-80
2022/05/09 04:50:57;;;;;;;7.38;3.40;;;5.40;99.90;;;;;;5076920;28;20134;-80
2022/05/09 04:53:24;;;;;;;9.43;3.50;;;5.70;99.90;;;;;;5078558;28;20048;-80
2022/05/09 04:55:50;;;;;;;6.40;3.95;;;5.60;99.90;;;;;;5080584;28;20047;-80
2022/05/09 04:58:19;;;;;;;8.13;4.05;;;5.70;99.90;;;;;;5062933;28;20127;-80
2022/05/09 05:00:45;;;;;;;8.73;3.88;;;5.80;99.90;;;;;;5079918;28;20046;-80
2022/05/09 05:03:11;;;;;;;11.13;3.50;;;5.90;99.90;;;;;;5079767;28;20076;-79
2022/05/09 05:05:37;;;;;;;8.57;4.80;;;6.30;99.90;;;;;;5079412;28;20227;-80
2022/05/09 05:08:03;;;;;;;12.40;3.70;;;6.00;99.90;;;;;;5080532;28;20044;-80
2022/05/09 05:10:30;;;;;;;7.95;3.83;;;6.10;99.90;;;;;;5078932;28;20047;-80
2022/05/09 05:12:58;;;;;;;8.82;4.75;;;6.20;99.90;;;;;;5079754;28;20535;-80
2022/05/09 05:15:25;;;;;;;8.40;4.10;;;6.30;99.90;;;;;;5079209;28;20055;-80
2022/05/09 05:17:51;;;;;;;8.90;3.95;;;6.40;99.90;;;;;;5080013;28;20120;-80
2022/05/09 05:20:17;;;;;;;11.35;3.92;;;6.70;99.90;;;;;;5062483;28;20092;-81
2022/05/09 05:22:47;;;;;;;10.85;5.60;;;6.90;99.90;;;;;;5079077;28;20037;-81
2022/05/09 05:25:28;;;;;;;8.27;4.10;;;6.70;99.90;;;;;;5063777;28;20045;-80
2022/05/09 05:27:54;;;;;;;12.27;4.75;;;6.80;99.90;;;;;;5078633;28;20481;-80
2022/05/09 05:30:20;;;;;;;9.15;4.43;;;7.10;99.90;;;;;;5079728;28;20044;-80
2022/05/09 05:32:47;;;;;;;11.38;4.70;;;7.10;99.90;;;;;;5079124;28;20048;-80
2022/05/09 05:35:24;;;;;;;14.88;4.72;;;7.20;99.90;;;;;;5079438;28;20523;-80
2022/05/09 05:37:50;;;;;;;8.93;5.18;;;7.40;99.90;;;;;;5079632;28;20040;-80
2022/05/09 05:40:17;;;;;;;9.52;4.43;;;7.50;99.90;;;;;;5078731;28;20057;-80
2022/05/09 05:42:44;;;;;;;9.90;4.93;;;7.60;99.90;;;;;;5080001;28;20382;-79
2022/05/09 05:45:13;;;;;;;8.30;4.68;;;7.70;99.90;;;;;;5062007;28;20033;-80
2022/05/09 05:47:39;;;;;;;10.95;4.72;;;7.90;99.90;;;;;;5063192;28;20090;-80
2022/05/09 05:50:08;;;;;;;9.02;4.65;;;7.90;99.90;;;;;;5062388;28;20484;-80
2022/05/09 05:52:34;;;;;;;16.25;5.10;;;8.00;99.90;;;;;;5062825;28;20103;-81
2022/05/09 05:54:59;;;;;;;9.63;4.72;;;8.10;99.90;;;;;;5062719;28;20084;-80
2022/05/09 05:57:30;;;;;;;12.02;6.20;;;8.30;99.90;;;;;;5078927;28;20047;-80
2022/05/09 05:59:59;;;;;;;10.23;4.68;;;8.50;99.90;;;;;;5079436;28;20044;-79
2022/05/09 06:02:27;;;;;;;10.75;4.90;;;8.60;99.90;;;;;;5078383;28;20041;-78
2022/05/09 06:04:53;;;;;;;11.07;4.35;;;8.70;99.90;;;;;;5079527;28;20130;-80
2022/05/09 06:07:19;;;;;;;13.80;5.13;;;8.80;99.90;;;;;;5079785;28;20036;-80
2022/05/09 06:09:46;;;;;;;10.45;4.60;;;8.90;99.90;;;;;;5062371;28;20051;-80
2022/05/09 06:12:14;;;;;;;12.35;4.80;;;9.10;99.90;;;;;;5079449;28;20048;-77
2022/05/09 06:14:43;;;;;;;12.43;5.03;;;9.20;99.90;;;;;;5078807;28;20071;-78
2022/05/09 06:17:10;;;;;;;11.25;4.85;;;9.30;99.90;;;;;;5079483;28;20040;-79
2022/05/09 06:19:37;;;;;;;10.20;5.10;;;9.40;99.90;;;;;;5077918;28;20049;-77
2022/05/09 06:22:04;;;;;;;8.10;4.78;;;9.50;99.90;;;;;;5078909;28;20139;-79
2022/05/09 06:24:30;;;;;;;14.20;4.85;;;9.60;99.90;;;;;;5061251;28;20103;-77
2022/05/09 06:26:56;;;;;;;9.75;5.13;;;9.60;99.90;;;;;;5061913;28;20386;-79
2022/05/09 06:29:23;;;;;;;10.80;4.53;;;9.70;99.90;;;;;;5078330;28;20071;-78
2022/05/09 06:31:49;;;;;;;12.63;4.57;;;9.80;99.90;;;;;;5077824;28;20052;-79
2022/05/09 06:34:15;;;;;;;12.82;4.68;;;9.90;99.90;;;;;;5062580;28;20064;-81
2022/05/09 06:36:44;;;;;;;11.45;4.60;;;10.00;99.90;;;;;;5061408;28;20404;-79
2022/05/09 06:39:10;;;;;;;10.05;4.95;;;10.10;99.90;;;;;;5062453;28;20448;-79
2022/05/09 06:41:37;;;;;;;9.15;4.13;;;10.30;99.90;;;;;;5062173;28;20162;-77
2022/05/09 06:44:02;;;;;;;12.10;4.43;;;10.30;99.90;;;;;;5079120;28;20033;-80
2022/05/09 06:46:28;;;;;;;11.02;5.60;;;10.50;99.90;;;;;;5063218;28;20074;-78
2022/05/09 06:48:54;;;;;;;11.02;4.95;;;10.50;99.90;;;;;;5078677;28;20048;-78
2022/05/09 06:51:20;;;;;;;10.40;4.65;;;10.70;99.90;;;;;;5063211;28;20028;-80
2022/05/09 06:53:46;;;;;;;9.02;5.00;;;10.80;99.90;;;;;;5078446;28;20055;-79
2022/05/09 06:56:12;;;;;;;13.65;5.80;;;11.00;99.90;;;;;;5045530;28;20129;-78
2022/05/09 06:58:39;;;;;;;8.45;4.32;;;11.10;99.90;;;;;;5060573;28;20036;-79
2022/05/09 07:01:15;;;;;;;10.00;4.68;;;11.20;99.90;;;;;;5077541;28;20045;-79
2022/05/09 07:03:42;;;;;;;10.40;5.00;;;11.30;99.90;;;;;;5061383;28;20144;-80
2022/05/09 07:06:08;;;;;;;9.23;4.28;;;11.50;99.90;;;;;;5060666;28;20072;-80
2022/05/09 07:08:34;;;;;;;11.65;4.70;;;11.60;99.90;;;;;;5078356;28;20051;-81
2022/05/09 07:11:02;;;;;;;11.40;4.90;;;11.70;99.90;;;;;;5060676;28;20082;-76
2022/05/09 07:13:28;;;;;;;10.23;4.90;;;11.80;99.90;;;;;;5060929;28;20041;-79
2022/05/09 07:15:57;;;;;;;9.05;4.22;;;11.80;99.90;;;;;;5057052;28;20051;-76
2022/05/09 07:18:28;;;;;;;10.07;4.22;;;11.90;99.90;;;;;;5057862;28;20052;-81
2022/05/09 07:20:55;;;;;;;10.73;4.32;;;12.00;99.90;;;;;;5065922;28;20052;-80
2022/05/09 07:23:21;;;;;;;9.15;4.72;;;12.10;99.90;;;;;;5075887;28;20052;-79
2022/05/09 07:25:50;;;;;;;8.90;4.68;;;12.20;99.90;;;;;;5060062;28;20044;-78
2022/05/09 07:28:18;;;;;;;13.60;4.68;;;12.30;99.90;;;;;;5042909;28;20028;-80
2022/05/09 07:30:44;;;;;;;13.15;5.57;;;12.50;99.90;;;;;;5076972;28;20523;-80
2022/05/09 07:33:18;;;;;;;10.80;4.10;;;12.70;99.90;;;;;;5074597;28;20048;-75
2022/05/09 07:35:44;;;;;;;9.52;3.95;;;12.80;99.90;;;;;;5071215;28;20048;-78
2022/05/09 07:38:11;;;;;;;9.90;3.90;;;12.90;99.90;;;;;;5067539;28;20054;-73
2022/05/09 07:40:38;;;;;;;8.15;3.95;;;13.10;99.90;;;;;;5067980;28;20040;-79
2022/05/09 07:43:09;;;;;;;8.75;3.92;;;13.10;99.90;;;;;;5087718;28;20048;-76
2022/05/09 07:45:35;;;;;;;9.40;4.20;;;13.30;99.90;;;;;;5074479;28;20047;-79
2022/05/09 07:48:01;;;;;;;9.23;4.30;;;13.30;99.90;;;;;;5062620;28;20123;-78
2022/05/09 07:50:26;;;;;;;8.77;4.45;;;13.40;99.90;;;;;;5071887;28;20076;-72
2022/05/09 07:52:52;;;;;;;8.88;4.32;;;13.50;99.90;;;;;;5087138;28;20536;-81
2022/05/09 07:55:18;;;;;;;9.07;4.82;;;13.60;99.90;;;;;;5068724;28;20536;-78
2022/05/09 07:57:44;;;;;;;10.30;4.47;;;13.70;99.90;;;;;;5075091;28;20059;-78
2022/05/09 08:00:11;;;;;;;10.68;4.53;;;13.80;99.90;;;;;;5079603;28;20104;-80
2022/05/09 08:02:40;;;;;;;8.65;4.78;;;14.00;99.90;;;;;;5076199;28;20420;-79
2022/05/09 08:05:10;;;;;;;7.95;4.10;;;14.10;99.90;;;;;;5077038;28;20050;-78
2022/05/09 08:07:37;;;;;;;10.00;4.97;;;14.30;99.90;;;;;;5043688;28;20037;-78
2022/05/09 08:10:04;;;;;;;10.05;4.60;;;14.40;99.90;;;;;;5059941;28;20044;-79
2022/05/09 08:12:30;;;;;;;8.48;4.20;;;14.50;99.90;;;;;;5061239;28;20045;-79
2022/05/09 08:14:55;;;;;;;7.88;3.97;;;14.70;99.90;;;;;;5075635;28;20509;-76
2022/05/09 08:17:21;;;;;;;11.85;4.13;;;14.80;99.90;;;;;;5040844;28;20033;-78
2022/05/09 08:19:47;;;;;;;8.52;3.97;;;14.90;99.90;;;;;;5067128;28;20063;-81
2022/05/09 08:22:13;;;;;;;8.02;3.63;;;15.00;99.90;;;;;;5076602;28;20114;-81
2022/05/09 08:24:39;;;;;;;10.82;4.10;;;15.00;99.90;;;;;;5043504;28;20044;-80
2022/05/09 08:27:05;;;;;;;7.78;3.95;;;15.10;99.90;;;;;;5060589;28;20070;-81
2022/05/09 08:29:31;;;;;;;10.98;4.45;;;15.20;99.90;;;;;;5023483;28;20041;-82
2022/05/09 08:31:57;;;;;;;8.73;3.90;;;15.30;99.90;;;;;;5055686;28;20144;-82
2022/05/09 08:34:22;;;;;;;11.95;4.13;;;15.40;99.90;;;;;;5040413;28;20045;-79
2022/05/09 08:36:50;;;;;;;6.45;3.30;;;15.60;99.90;;;;;;5055155;28;20047;-79
2022/05/09 08:39:16;;;;;;;11.25;3.75;;;15.80;99.90;;;;;;5056100;28;20106;-81
2022/05/09 08:42:01;;;;;;;8.25;3.60;;;15.90;99.90;;;;;;5065854;28;20041;-81
2022/05/09 08:44:33;;;;;;;14.18;4.43;;;16.00;99.90;;;;;;5075719;28;20080;-80
2022/05/09 08:47:13;;;;;;;6.75;3.67;;;16.00;99.90;;;;;;5060214;28;20056;-80
2022/05/09 08:50:07;;;;;;;9.85;3.78;;;16.20;99.90;;;;;;5075013;28;20057;-81
2022/05/09 08:52:37;;;;;;;9.88;3.33;;;16.30;99.90;;;;;;5059076;28;20055;-75
2022/05/09 08:55:03;;;;;;;7.93;3.40;;;16.40;99.90;;;;;;5077145;28;20056;-80
2022/05/09 08:57:52;;;;;;;10.38;3.85;;;16.40;99.90;;;;;;5076885;28;20138;-81
2022/05/09 09:00:20;;;;;;;8.98;3.47;;;16.50;99.90;;;;;;5075857;28;20125;-82
2022/05/09 09:03:13;;;;;;;7.75;3.28;;;16.70;99.90;;;;;;5075960;28;20048;-79
2022/05/09 09:05:42;;;;;;;8.30;2.90;;;16.80;99.90;;;;;;5056147;28;20053;-82
2022/05/09 09:08:21;;;;;;;7.68;2.50;;;17.00;99.90;;;;;;5056235;28;20596;-79
2022/05/09 09:11:04;;;;;;;6.10;2.28;;;17.20;99.90;;;;;;5066475;28;20056;-80
2022/05/09 09:13:35;;;;;;;8.65;2.72;;;17.30;99.90;;;;;;5076214;28;20112;-81
2022/05/09 09:16:22;;;;;;;6.97;2.63;;;17.40;99.90;;;;;;5076159;28;20119;-81
2022/05/09 09:19:09;;;;;;;7.32;3.00;;;17.50;99.90;;;;;;5075459;28;20052;-81
2022/05/09 09:21:44;;;;;;;6.07;2.83;;;17.60;99.90;;;;;;5076626;28;20071;-81
2022/05/09 09:24:19;;;;;;;6.38;2.70;;;17.70;99.90;;;;;;5075853;28;20067;-82
2022/05/09 09:27:17;;;;;;;7.03;2.83;;;17.80;99.90;;;;;;5059475;28;20151;-80
2022/05/09 09:29:52;;;;;;;5.63;2.35;;;17.80;99.90;;;;;;5076407;28;20056;-76
2022/05/09 09:32:20;;;;;;;5.35;2.90;;;18.00;99.90;;;;;;5075400;28;20070;-77
2022/05/09 09:35:03;;;;;;;5.47;2.83;;;18.10;99.90;;;;;;5055301;28;20055;-81
2022/05/09 09:37:28;;;;;;;8.07;2.78;;;18.20;99.90;;;;;;5073680;28;20098;-80
2022/05/09 09:39:54;;;;;;;6.50;2.75;;;18.30;99.90;;;;;;5079066;28;20049;-79
2022/05/09 09:42:20;;;;;;;5.60;2.40;;;18.40;99.90;;;;;;5063040;28;20060;-79
2022/05/09 09:44:48;;;;;;;6.03;2.40;;;18.50;99.90;;;;;;5079208;28;20044;-80
2022/05/09 09:47:20;;;;;;;5.63;2.30;;;18.50;99.90;;;;;;5063436;28;20452;-73
2022/05/09 09:49:49;;;;;;;8.80;3.15;;;18.60;99.90;;;;;;5078628;28;20090;-77
2022/05/09 09:52:23;;;;;;;7.22;2.75;;;18.70;99.90;;;;;;5080317;28;20049;-80
2022/05/09 09:55:18;;;;;;;7.00;2.33;;;18.80;99.90;;;;;;5062750;28;20055;-79
2022/05/09 09:57:44;;;;;;;8.35;2.97;;;18.90;99.90;;;;;;5059657;28;20121;-81
2022/05/09 10:00:34;;;;;;;5.32;2.00;;;18.90;99.90;;;;;;5080660;28;20477;-82
2022/05/09 10:03:21;;;;;;;7.53;3.33;;;18.80;99.90;;;;;;5062600;28;20053;-81
2022/05/09 10:05:49;;;;;;;8.32;2.38;;;18.80;99.90;;;;;;5041488;28;20635;-79
2022/05/09 10:08:20;;;;;;;7.38;2.30;;;18.90;99.90;;;;;;5059946;28;20101;-80
2022/05/09 10:11:18;;;;;;;6.68;2.08;;;18.90;99.90;;;;;;5057994;28;20072;-81
2022/05/09 10:13:50;;;;;;;6.57;2.38;;;18.90;99.90;;;;;;5071484;28;20080;-81
2022/05/09 10:16:35;;;;;;;3.65;1.98;;;18.80;99.90;;;;;;5059479;28;20109;-81
2022/05/09 10:19:06;;;;;;;7.05;1.77;;;18.80;99.90;;;;;;5057975;28;20052;-80
2022/05/09 10:24:47;;;;;;;5.65;1.80;;;18.90;99.90;;;;;;5058843;28;20049;-81
2022/05/09 10:27:22;;;;;;;6.13;1.95;;;19.00;99.90;;;;;;5073745;28;20062;-81
2022/05/09 10:30:01;;;;;;;4.75;2.05;;;19.20;99.90;;;;;;5080358;28;20091;-78
2022/05/09 10:33:11;;;;;;;7.85;2.05;;;19.40;99.90;;;;;;5079424;28;20067;-80
2022/05/09 10:35:49;;;;;;;5.22;2.20;;;19.50;99.90;;;;;;5037547;28;20053;-81
2022/05/09 10:38:18;;;;;;;5.53;1.65;;;19.60;99.90;;;;;;5022075;28;20088;-81
2022/05/09 10:40:48;;;;;;;5.28;1.73;;;19.70;99.90;;;;;;5037407;28;20112;-81
2022/05/09 10:43:25;;;;;;;3.97;1.48;;;19.80;99.90;;;;;;5078680;28;20051;-82
2022/05/09 10:45:53;;;;;;;4.28;1.88;;;19.80;99.90;;;;;;5077820;28;20493;-81
2022/05/09 10:48:34;;;;;;;4.22;1.48;;;19.80;99.90;;;;;;5044491;28;20060;-81
2022/05/09 10:51:47;;;;;;;5.03;1.80;;;19.80;99.90;;;;;;5077783;28;20048;-80
2022/05/09 10:54:24;;;;;;;4.65;1.42;;;19.80;99.90;;;;;;5039719;28;20053;-82
2022/05/09 10:57:05;;;;;;;5.15;1.60;;;19.90;99.90;;;;;;5023285;28;20186;-82
2022/05/09 10:59:35;;;;;;;5.53;1.92;;;19.90;99.90;;;;;;5049894;28;20061;-80
2022/05/09 11:02:11;;;;;;;4.85;1.90;;;20.00;99.90;;;;;;5076994;28;20105;-80
2022/05/09 11:04:38;;;;;;;5.18;1.75;;;20.10;99.90;;;;;;5049353;28;20056;-81
2022/05/09 11:07:30;;;;;;;4.20;1.83;;;20.20;99.90;;;;;;5057523;28;20098;-81
2022/05/09 11:10:14;;;;;;;6.10;1.95;;;20.30;99.90;;;;;;5057341;28;20059;-82
2022/05/09 11:12:52;;;;;;;6.45;2.25;;;20.30;99.90;;;;;;5058188;28;20076;-77
2022/05/09 11:15:43;;;;;;;4.82;2.10;;;20.30;99.90;;;;;;5070666;28;20048;-81
2022/05/09 11:18:30;;;;;;;6.57;2.03;;;20.10;99.90;;;;;;5078481;28;20049;-78
2022/05/09 11:21:32;;;;;;;5.10;2.42;;;20.10;99.90;;;;;;5077732;28;20440;-76
2022/05/09 11:24:10;;;;;;;7.82;2.35;;;20.20;99.90;;;;;;5040850;28;20057;-81
2022/05/09 11:26:49;;;;;;;6.35;2.20;;;20.10;99.90;;;;;;5049822;28;20057;-80
2022/05/09 11:29:17;;;;;;;6.35;2.58;;;20.30;99.90;;;;;;5043388;28;20060;-75
2022/05/09 11:32:05;;;;;;;4.68;2.47;;;20.30;99.90;;;;;;5075901;28;20040;-81
2022/05/09 11:34:50;;;;;;;5.68;2.22;;;20.30;99.90;;;;;;5077554;28;20090;-81
2022/05/09 11:38:13;;;;;;;3.47;1.80;;;20.40;99.90;;;;;;5076997;28;20106;-81
2022/05/09 11:40:56;;;;;;;6.55;2.60;;;20.50;99.90;;;;;;5014721;28;20077;-79
2022/05/09 11:43:40;;;;;;;5.35;2.03;;;20.60;99.90;;;;;;4999667;28;20049;-80
2022/05/09 11:46:20;;;;;;;5.78;1.92;;;20.50;99.90;;;;;;5047268;28;20049;-80
2022/05/09 11:49:14;;;;;;;3.85;1.98;;;20.40;99.90;;;;;;5072363;28;20059;-80
2022/05/09 11:51:39;;;;;;;6.25;2.28;;;20.40;99.90;;;;;;5057484;28;20746;-78
2022/05/09 11:54:12;;;;;;;4.50;2.20;;;20.40;99.90;;;;;;5056595;28;20064;-81
2022/05/09 11:56:43;;;;;;;4.90;2.50;;;20.40;99.90;;;;;;5056571;28;20044;-76
2022/05/09 11:59:16;;;;;;;8.13;2.50;;;20.50;99.90;;;;;;5040820;28;20059;-81
2022/05/09 12:01:53;;;;;;;5.10;2.25;;;20.60;99.90;;;;;;5054468;28;20098;-82
2022/05/09 12:04:40;;;;;;;8.70;2.80;;;20.60;99.90;;;;;;5049729;28;20052;-72
2022/05/09 12:07:22;;;;;;;5.88;2.90;;;20.70;99.90;;;;;;5059586;28;20135;-76
2022/05/09 12:10:03;;;;;;;6.95;3.00;;;20.70;99.90;;;;;;5075742;28;20059;-81
2022/05/09 12:12:41;;;;;;;5.60;2.70;;;20.60;99.90;;;;;;5076909;28;20040;-78
2022/05/09 12:15:27;;;;;;;5.47;2.47;;;20.60;99.90;;;;;;5075566;28;20064;-75
2022/05/09 12:17:58;;;;;;;6.70;2.50;;;20.50;99.90;;;;;;5029161;28;20048;-81
2022/05/09 12:20:27;;;;;;;6.85;2.60;;;20.60;99.90;;;;;;5076495;28;20150;-81
2022/05/09 12:22:56;;;;;;;6.95;2.50;;;20.60;99.90;;;;;;5066548;28;20048;-78
2022/05/09 12:25:38;;;;;;;4.20;2.22;;;20.80;99.90;;;;;;5040986;28;20056;-80
2022/05/09 12:28:19;;;;;;;4.68;2.15;;;20.80;99.90;;;;;;5063032;28;20190;-81
2022/05/09 12:30:56;;;;;;;3.88;2.25;;;20.80;99.90;;;;;;5039501;28;20084;-77
2022/05/09 12:33:47;;;;;;;6.63;2.17;;;20.90;99.90;;;;;;5056863;28;20056;-76
2022/05/09 12:36:15;;;;;;;6.30;2.50;;;20.90;99.90;;;;;;5055009;28;20493;-79
2022/05/09 12:38:49;;;;;;;6.43;2.67;;;21.00;99.90;;;;;;5056663;28;20088;-78
2022/05/09 12:41:29;;;;;;;5.60;2.33;;;21.00;99.90;;;;;;5061859;28;20041;-81
2022/05/09 12:44:05;;;;;;;5.10;2.40;;;21.00;99.90;;;;;;5058642;28;20045;-80
2022/05/09 12:46:37;;;;;;;4.75;2.17;;;21.00;99.90;;;;;;5076841;28;20067;-81
2022/05/09 12:49:06;;;;;;;5.68;2.20;;;21.00;99.90;;;;;;5075575;28;20037;-78
2022/05/09 12:51:40;;;;;;;4.18;1.80;;;21.10;99.90;;;;;;5076177;28;20051;-81
2022/05/09 12:54:09;;;;;;;4.53;2.20;;;21.30;99.90;;;;;;5075862;28;20056;-75
2022/05/09 12:56:37;;;;;;;5.75;2.40;;;21.40;99.90;;;;;;5075852;28;20052;-79
2022/05/09 12:59:08;;;;;;;8.32;2.28;;;21.50;99.90;;;;;;5059986;28;20059;-80
2022/05/09 13:01:35;;;;;;;4.68;2.28;;;21.70;99.90;;;;;;5064938;28;20494;-77
2022/05/09 13:04:07;;;;;;;4.57;2.30;;;21.80;99.90;;;;;;5071442;28;20433;-75
2022/05/09 13:06:47;;;;;;;4.55;2.17;;;21.70;99.90;;;;;;5055193;28;20132;-75
2022/05/09 13:09:23;;;;;;;3.92;2.30;;;21.70;99.90;;;;;;5056110;28;20057;-77
2022/05/09 13:12:21;;;;;;;4.10;2.22;;;21.60;99.90;;;;;;5056282;28;20083;-78
2022/05/09 13:15:06;;;;;;;6.72;2.72;;;21.50;99.90;;;;;;5059028;28;20132;-78
2022/05/09 13:18:00;;;;;;;5.22;2.22;;;21.50;99.90;;;;;;5078198;28;20048;-82